KTPA/TPA METAR and TAF weather

Enter ICAO airport designator
Station Type Date Time Source
KTPA METAR 2022/07/03 13:53 UTC NOAA

KTPA 031353Z 20008KT 10SM FEW033 FEW130 BKN250 31/24 A3012 RMK AO2 SLP197 TCU DSNT SW T03060239 $


Station Type Date Time Source
KTPA Decoded METAR 2022/07/03 13:53 UTC NOAA

TAMPA INTERNATIONAL AIRPORT , FL, United States (KTPA) 27-58N 082-32W 11M
Jul 03, 2022 - 09:53 AM EDT / 2022.07.03 1353 UTC
Wind: from the SSW (200 degrees) at 9 MPH (8 KT):0
Visibility: 10 mile(s):0
Sky conditions: mostly cloudy
Weather: Towering cumulus clouds observed
Temperature: 87.1 F (30.6 C)
Heat index: 96.4 F (35.8 C):1
Dew Point: 75.0 F (23.9 C)
Relative Humidity: 67%
Pressure (altimeter): 30.12 in. Hg (1019 hPa)
ob: KTPA 031353Z 20008KT 10SM FEW033 FEW130 BKN250 31/24 A3012 RMK AO2 SLP197 TCU DSNT SW T03060239
cycle: 14

Station Type Date Time Source
KTPA TAF 2022/07/03 12:27 UTC NOAA

TAF KTPA 031125Z 0312/0418 13004KT P6SM SCT030 SCT250
FM031600 24007KT P6SM VCTS SCT035CB SCT100 BKN250
FM032000 28007KT P6SM VCTS SCT045CB BKN100
FM032300 VRB04KT P6SM FEW035 BKN250
FM041600 24007KT P6SM VCTS SCT035CB SCT100 BKN250

Example: see airport list